Aeroporto :
LOGIN :

Iscrizione | Disclaimer

   EN    FR    IT 

 










Sommario :    VFR   VFR Marginale   IFR   IFR Intensivo   IFR Molto Intensivo
Visibilità : 
Base nubi : 
>= 8 km
>= 3000ft
5 / 8 km
1000 / 3000 ft
1500m / 5 km
500 / 1000 ft
800 / 1500m
200 / 500 ft
< 800m
< 200 ft
Simboli :   Temporali  Nebbia  Neve Forte  Precipitazioni Forti  Vento > 20 kt
SIGMETs :   Varie  Temporali  Ghiacco  Turbolenza  Onda orograficha  Ceneri Vulcaniche






- Altitudine del aeroporto : 1416 ft
- Codice IATA : ZRH


LSZH - Zurich

ULTIMO METAR :
  • 200620Z 32003KT 9000 FEW012 SCT015 OVC028 03/01 Q1015 NOSIG

METARs OBSOLETI :
  • 200550Z 33004KT 9000 FEW015 OVC030 03/01 Q1015 NOSIG
  • 200520Z VRB02KT 9999 FEW015 OVC030 03/01 Q1015 NOSIG
  • 200450Z VRB01KT 9999 FEW023 OVC030 04/01 Q1015 NOSIG
  • 200420Z VRB02KT 9999 FEW027 OVC030 04/01 Q1015 NOSIG
  • 200350Z VRB01KT 9999 FEW026 BKN028 04/01 Q1016 NOSIG

TAF TAF LSZH
Valido dal 20 a 06 ore il 21 a 12 ore UTC


200525Z 2006/2112 VRB03KT 9999 FEW025 BKN030 TX05/2014Z TN03/2023Z TN02/2106Z
BECMG 2008/2010 04005KT
PROB30 2015/2019 SCT015
BECMG 2015/2018 VRB03KT
BECMG 2019/2022 BKN014
PROB40 2100/2109 4500 BR BKN008
ATIS : +41 43 816 2295 (DEP) +41 43 816 2294 (ARR)



MetMap, La meteo Aeronautica in un colpo d'occhio ! - Copyright ORBIFLY Dicembre 2007 - Disclaimer

ORBIFLY MET'MAP TEAM :

Programmazione e sviluppo : Alexandra Zaïnal
Concezione e sviluppo : Baudouin d'Aumeries
Co-Programmazione e sviluppo : Marc-Olivier Méhu
Supporto tecnico e logistico : Manuel Goepfert
Aiuto per la traduzione : Arnaldo La Scala

Contatto : metmap@orbifly.com




FONTI E CREDITI :

   NOAA